sensor_id;sensor_type;location;lat;lon;timestamp;P1;durP1;ratioP1;P2;durP2;ratioP2
73239;SDS011;61452;40.054;4.110;2023-05-29T00:01:43;2.97;;;1.90;;
73239;SDS011;61452;40.054;4.110;2023-05-29T00:06:45;3.63;;;2.03;;
73239;SDS011;61452;40.054;4.110;2023-05-29T00:11:47;3.25;;;2.25;;
73239;SDS011;61452;40.054;4.110;2023-05-29T00:16:52;2.90;;;1.70;;
73239;SDS011;61452;40.054;4.110;2023-05-29T00:21:54;2.63;;;1.98;;
73239;SDS011;61452;40.054;4.110;2023-05-29T00:26:56;4.65;;;2.13;;
73239;SDS011;61452;40.054;4.110;2023-05-29T00:31:58;3.90;;;2.28;;
73239;SDS011;61452;40.054;4.110;2023-05-29T00:37:02;3.60;;;2.67;;
73239;SDS011;61452;40.054;4.110;2023-05-29T00:42:05;2.58;;;2.17;;
73239;SDS011;61452;40.054;4.110;2023-05-29T00:47:08;3.10;;;2.17;;
73239;SDS011;61452;40.054;4.110;2023-05-29T00:52:10;2.30;;;2.08;;
73239;SDS011;61452;40.054;4.110;2023-05-29T00:57:14;3.22;;;2.03;;
73239;SDS011;61452;40.054;4.110;2023-05-29T01:02:18;2.92;;;2.05;;
73239;SDS011;61452;40.054;4.110;2023-05-29T01:07:22;4.60;;;2.15;;
73239;SDS011;61452;40.054;4.110;2023-05-29T01:12:36;2.60;;;2.13;;
73239;SDS011;61452;40.054;4.110;2023-05-29T01:28:29;3.30;;;2.17;;
73239;SDS011;61452;40.054;4.110;2023-05-29T01:33:40;2.70;;;2.38;;
73239;SDS011;61452;40.054;4.110;2023-05-29T01:38:42;3.53;;;2.40;;
73239;SDS011;61452;40.054;4.110;2023-05-29T01:43:45;3.22;;;2.05;;
73239;SDS011;61452;40.054;4.110;2023-05-29T01:48:48;3.13;;;2.40;;
73239;SDS011;61452;40.054;4.110;2023-05-29T01:53:50;3.35;;;2.10;;
73239;SDS011;61452;40.054;4.110;2023-05-29T01:58:54;2.83;;;2.20;;
73239;SDS011;61452;40.054;4.110;2023-05-29T02:03:57;2.55;;;1.95;;
73239;SDS011;61452;40.054;4.110;2023-05-29T02:08:59;2.15;;;1.60;;
73239;SDS011;61452;40.054;4.110;2023-05-29T02:14:01;2.78;;;1.65;;
73239;SDS011;61452;40.054;4.110;2023-05-29T02:19:05;3.53;;;2.00;;
73239;SDS011;61452;40.054;4.110;2023-05-29T02:24:08;1.98;;;1.83;;
73239;SDS011;61452;40.054;4.110;2023-05-29T02:29:10;3.47;;;2.17;;
73239;SDS011;61452;40.054;4.110;2023-05-29T02:34:12;2.30;;;1.77;;
73239;SDS011;61452;40.054;4.110;2023-05-29T02:39:15;2.25;;;1.77;;
73239;SDS011;61452;40.054;4.110;2023-05-29T02:44:18;3.25;;;1.80;;
73239;SDS011;61452;40.054;4.110;2023-05-29T02:49:20;3.10;;;2.25;;
73239;SDS011;61452;40.054;4.110;2023-05-29T02:54:25;4.00;;;2.45;;
73239;SDS011;61452;40.054;4.110;2023-05-29T02:59:27;2.88;;;2.08;;
73239;SDS011;61452;40.054;4.110;2023-05-29T03:04:30;3.78;;;1.98;;
73239;SDS011;61452;40.054;4.110;2023-05-29T03:09:32;3.25;;;1.75;;
73239;SDS011;61452;40.054;4.110;2023-05-29T03:14:34;2.40;;;1.75;;
73239;SDS011;61452;40.054;4.110;2023-05-29T03:19:42;3.53;;;2.17;;
73239;SDS011;61452;40.054;4.110;2023-05-29T03:24:44;3.15;;;2.00;;
73239;SDS011;61452;40.054;4.110;2023-05-29T03:29:47;2.50;;;2.25;;
73239;SDS011;61452;40.054;4.110;2023-05-29T03:34:50;3.05;;;2.08;;
73239;SDS011;61452;40.054;4.110;2023-05-29T03:39:52;3.10;;;1.92;;
73239;SDS011;61452;40.054;4.110;2023-05-29T03:44:54;2.40;;;1.80;;
73239;SDS011;61452;40.054;4.110;2023-05-29T03:55:01;4.30;;;2.30;;
73239;SDS011;61452;40.054;4.110;2023-05-29T04:00:04;2.53;;;1.90;;
73239;SDS011;61452;40.054;4.110;2023-05-29T04:05:13;3.72;;;2.13;;
73239;SDS011;61452;40.054;4.110;2023-05-29T04:10:16;2.88;;;2.08;;
73239;SDS011;61452;40.054;4.110;2023-05-29T04:15:18;2.53;;;1.90;;
73239;SDS011;61452;40.054;4.110;2023-05-29T04:20:21;3.03;;;1.85;;
73239;SDS011;61452;40.054;4.110;2023-05-29T04:25:23;3.10;;;1.90;;
73239;SDS011;61452;40.054;4.110;2023-05-29T04:30:26;4.47;;;2.15;;
73239;SDS011;61452;40.054;4.110;2023-05-29T04:35:28;3.60;;;2.15;;
73239;SDS011;61452;40.054;4.110;2023-05-29T04:40:33;2.47;;;2.08;;
73239;SDS011;61452;40.054;4.110;2023-05-29T04:45:36;2.50;;;2.00;;
73239;SDS011;61452;40.054;4.110;2023-05-29T04:50:39;3.80;;;2.28;;
73239;SDS011;61452;40.054;4.110;2023-05-29T04:55:41;3.53;;;2.22;;
73239;SDS011;61452;40.054;4.110;2023-05-29T05:00:43;2.25;;;1.83;;
73239;SDS011;61452;40.054;4.110;2023-05-29T05:05:45;2.83;;;2.10;;
73239;SDS011;61452;40.054;4.110;2023-05-29T05:10:49;3.15;;;2.15;;
73239;SDS011;61452;40.054;4.110;2023-05-29T05:15:53;3.45;;;2.17;;
73239;SDS011;61452;40.054;4.110;2023-05-29T05:20:55;2.90;;;2.13;;
73239;SDS011;61452;40.054;4.110;2023-05-29T05:25:58;4.10;;;2.53;;
73239;SDS011;61452;40.054;4.110;2023-05-29T05:31:01;4.13;;;2.50;;
73239;SDS011;61452;40.054;4.110;2023-05-29T05:36:06;3.53;;;2.50;;
73239;SDS011;61452;40.054;4.110;2023-05-29T05:41:09;4.45;;;2.50;;
73239;SDS011;61452;40.054;4.110;2023-05-29T05:46:13;2.70;;;2.22;;
73239;SDS011;61452;40.054;4.110;2023-05-29T05:51:17;5.07;;;2.35;;
73239;SDS011;61452;40.054;4.110;2023-05-29T05:56:19;3.45;;;2.42;;
73239;SDS011;61452;40.054;4.110;2023-05-29T06:01:22;4.72;;;2.00;;
73239;SDS011;61452;40.054;4.110;2023-05-29T06:06:25;7.18;;;2.17;;
73239;SDS011;61452;40.054;4.110;2023-05-29T06:11:27;6.00;;;2.45;;
73239;SDS011;61452;40.054;4.110;2023-05-29T06:16:29;4.85;;;2.38;;
73239;SDS011;61452;40.054;4.110;2023-05-29T06:21:31;4.90;;;2.13;;
73239;SDS011;61452;40.054;4.110;2023-05-29T06:26:36;3.40;;;2.13;;
73239;SDS011;61452;40.054;4.110;2023-05-29T06:31:40;4.53;;;2.15;;
73239;SDS011;61452;40.054;4.110;2023-05-29T06:36:42;2.80;;;1.85;;
73239;SDS011;61452;40.054;4.110;2023-05-29T06:41:45;2.92;;;1.92;;
73239;SDS011;61452;40.054;4.110;2023-05-29T06:46:52;4.35;;;1.95;;
73239;SDS011;61452;40.054;4.110;2023-05-29T06:51:54;3.17;;;1.92;;
73239;SDS011;61452;40.054;4.110;2023-05-29T06:57:19;4.28;;;2.40;;
73239;SDS011;61452;40.054;4.110;2023-05-29T07:02:21;2.70;;;2.00;;
73239;SDS011;61452;40.054;4.110;2023-05-29T07:07:28;3.45;;;2.20;;
73239;SDS011;61452;40.054;4.110;2023-05-29T07:12:30;2.30;;;2.00;;
73239;SDS011;61452;40.054;4.110;2023-05-29T07:17:33;2.95;;;2.40;;
73239;SDS011;61452;40.054;4.110;2023-05-29T07:22:45;3.97;;;2.13;;
73239;SDS011;61452;40.054;4.110;2023-05-29T07:27:48;3.90;;;2.10;;
73239;SDS011;61452;40.054;4.110;2023-05-29T07:32:50;3.47;;;1.80;;
73239;SDS011;61452;40.054;4.110;2023-05-29T07:37:53;4.07;;;1.98;;
73239;SDS011;61452;40.054;4.110;2023-05-29T07:42:58;3.08;;;1.95;;
73239;SDS011;61452;40.054;4.110;2023-05-29T07:48:10;3.75;;;1.92;;
73239;SDS011;61452;40.054;4.110;2023-05-29T07:53:12;2.60;;;1.75;;
73239;SDS011;61452;40.054;4.110;2023-05-29T07:58:15;2.65;;;1.70;;
73239;SDS011;61452;40.054;4.110;2023-05-29T08:03:19;2.80;;;2.03;;
73239;SDS011;61452;40.054;4.110;2023-05-29T08:08:40;3.15;;;2.03;;
73239;SDS011;61452;40.054;4.110;2023-05-29T08:13:44;2.72;;;1.77;;
73239;SDS011;61452;40.054;4.110;2023-05-29T08:18:46;3.40;;;1.90;;
73239;SDS011;61452;40.054;4.110;2023-05-29T08:23:48;3.45;;;1.95;;
73239;SDS011;61452;40.054;4.110;2023-05-29T08:28:50;3.47;;;1.73;;
73239;SDS011;61452;40.054;4.110;2023-05-29T08:33:52;3.30;;;2.05;;
73239;SDS011;61452;40.054;4.110;2023-05-29T08:38:55;3.70;;;2.30;;
73239;SDS011;61452;40.054;4.110;2023-05-29T08:43:58;4.85;;;2.03;;
73239;SDS011;61452;40.054;4.110;2023-05-29T08:49:02;4.97;;;2.17;;
73239;SDS011;61452;40.054;4.110;2023-05-29T08:54:05;2.88;;;2.13;;
73239;SDS011;61452;40.054;4.110;2023-05-29T08:59:07;3.35;;;1.95;;
73239;SDS011;61452;40.054;4.110;2023-05-29T09:04:10;3.50;;;2.00;;
73239;SDS011;61452;40.054;4.110;2023-05-29T09:09:12;3.15;;;2.10;;
73239;SDS011;61452;40.054;4.110;2023-05-29T09:19:39;4.57;;;2.15;;
73239;SDS011;61452;40.054;4.110;2023-05-29T09:24:51;2.35;;;1.77;;
73239;SDS011;61452;40.054;4.110;2023-05-29T09:29:53;2.72;;;1.98;;
73239;SDS011;61452;40.054;4.110;2023-05-29T09:34:56;2.67;;;1.67;;
73239;SDS011;61452;40.054;4.110;2023-05-29T09:40:02;3.15;;;2.03;;
73239;SDS011;61452;40.054;4.110;2023-05-29T09:45:06;2.58;;;2.00;;
73239;SDS011;61452;40.054;4.110;2023-05-29T09:50:20;2.85;;;1.90;;
73239;SDS011;61452;40.054;4.110;2023-05-29T09:55:27;4.55;;;1.60;;
73239;SDS011;61452;40.054;4.110;2023-05-29T10:00:30;3.78;;;2.08;;
73239;SDS011;61452;40.054;4.110;2023-05-29T10:05:34;4.95;;;2.10;;
73239;SDS011;61452;40.054;4.110;2023-05-29T10:10:36;3.08;;;1.85;;
73239;SDS011;61452;40.054;4.110;2023-05-29T10:15:45;2.85;;;1.85;;
73239;SDS011;61452;40.054;4.110;2023-05-29T10:20:49;3.40;;;1.80;;
73239;SDS011;61452;40.054;4.110;2023-05-29T10:25:58;4.15;;;2.25;;
73239;SDS011;61452;40.054;4.110;2023-05-29T10:31:09;3.67;;;2.15;;
73239;SDS011;61452;40.054;4.110;2023-05-29T10:36:19;3.30;;;1.80;;
73239;SDS011;61452;40.054;4.110;2023-05-29T10:52:03;2.45;;;1.58;;
73239;SDS011;61452;40.054;4.110;2023-05-29T10:57:07;2.78;;;1.73;;
73239;SDS011;61452;40.054;4.110;2023-05-29T11:02:11;2.47;;;1.67;;
73239;SDS011;61452;40.054;4.110;2023-05-29T11:07:34;3.65;;;2.08;;
73239;SDS011;61452;40.054;4.110;2023-05-29T11:12:55;3.15;;;1.70;;
73239;SDS011;61452;40.054;4.110;2023-05-29T11:18:08;2.30;;;1.88;;
73239;SDS011;61452;40.054;4.110;2023-05-29T11:23:16;2.85;;;1.92;;
73239;SDS011;61452;40.054;4.110;2023-05-29T11:28:19;2.38;;;1.60;;
73239;SDS011;61452;40.054;4.110;2023-05-29T11:33:26;2.70;;;1.80;;
73239;SDS011;61452;40.054;4.110;2023-05-29T11:38:29;3.75;;;1.83;;
73239;SDS011;61452;40.054;4.110;2023-05-29T11:43:32;2.10;;;1.80;;
73239;SDS011;61452;40.054;4.110;2023-05-29T11:48:44;2.80;;;1.60;;
73239;SDS011;61452;40.054;4.110;2023-05-29T11:53:47;4.57;;;1.80;;
73239;SDS011;61452;40.054;4.110;2023-05-29T11:58:50;3.22;;;1.88;;
73239;SDS011;61452;40.054;4.110;2023-05-29T12:03:52;2.58;;;1.80;;
73239;SDS011;61452;40.054;4.110;2023-05-29T12:08:55;3.53;;;1.80;;
73239;SDS011;61452;40.054;4.110;2023-05-29T12:13:57;3.55;;;1.70;;
73239;SDS011;61452;40.054;4.110;2023-05-29T12:19:03;2.38;;;1.70;;
73239;SDS011;61452;40.054;4.110;2023-05-29T12:24:06;3.05;;;1.67;;
73239;SDS011;61452;40.054;4.110;2023-05-29T12:29:15;2.63;;;1.73;;
73239;SDS011;61452;40.054;4.110;2023-05-29T12:34:17;2.45;;;1.48;;
73239;SDS011;61452;40.054;4.110;2023-05-29T12:39:21;2.45;;;1.65;;
73239;SDS011;61452;40.054;4.110;2023-05-29T12:44:23;4.32;;;1.73;;
73239;SDS011;61452;40.054;4.110;2023-05-29T12:49:25;2.20;;;1.58;;
73239;SDS011;61452;40.054;4.110;2023-05-29T12:54:30;3.55;;;1.52;;
73239;SDS011;61452;40.054;4.110;2023-05-29T12:59:32;2.90;;;1.55;;
73239;SDS011;61452;40.054;4.110;2023-05-29T13:04:34;3.13;;;1.65;;
73239;SDS011;61452;40.054;4.110;2023-05-29T13:09:36;2.92;;;1.73;;
73239;SDS011;61452;40.054;4.110;2023-05-29T13:14:38;3.33;;;1.85;;
73239;SDS011;61452;40.054;4.110;2023-05-29T13:19:40;4.40;;;1.80;;
73239;SDS011;61452;40.054;4.110;2023-05-29T13:24:42;3.25;;;1.98;;
73239;SDS011;61452;40.054;4.110;2023-05-29T13:29:44;3.28;;;1.63;;
73239;SDS011;61452;40.054;4.110;2023-05-29T13:34:47;2.47;;;1.70;;
73239;SDS011;61452;40.054;4.110;2023-05-29T13:39:49;2.13;;;1.35;;
73239;SDS011;61452;40.054;4.110;2023-05-29T13:44:52;2.55;;;1.83;;
73239;SDS011;61452;40.054;4.110;2023-05-29T13:49:55;3.60;;;2.00;;
73239;SDS011;61452;40.054;4.110;2023-05-29T13:54:57;2.58;;;1.70;;
73239;SDS011;61452;40.054;4.110;2023-05-29T14:00:08;3.72;;;1.83;;
73239;SDS011;61452;40.054;4.110;2023-05-29T14:05:12;2.95;;;1.75;;
73239;SDS011;61452;40.054;4.110;2023-05-29T14:10:14;3.10;;;1.75;;
73239;SDS011;61452;40.054;4.110;2023-05-29T14:15:17;3.08;;;1.90;;
73239;SDS011;61452;40.054;4.110;2023-05-29T14:20:19;3.10;;;1.77;;
73239;SDS011;61452;40.054;4.110;2023-05-29T14:25:21;2.63;;;1.67;;
73239;SDS011;61452;40.054;4.110;2023-05-29T14:30:23;3.25;;;1.65;;
73239;SDS011;61452;40.054;4.110;2023-05-29T14:35:25;2.97;;;1.63;;
73239;SDS011;61452;40.054;4.110;2023-05-29T14:40:27;3.13;;;1.70;;
73239;SDS011;61452;40.054;4.110;2023-05-29T14:45:29;2.53;;;1.67;;
73239;SDS011;61452;40.054;4.110;2023-05-29T14:50:31;4.00;;;2.20;;
73239;SDS011;61452;40.054;4.110;2023-05-29T14:55:34;2.90;;;1.88;;
73239;SDS011;61452;40.054;4.110;2023-05-29T15:00:39;4.40;;;1.60;;
73239;SDS011;61452;40.054;4.110;2023-05-29T15:05:41;2.85;;;1.90;;
73239;SDS011;61452;40.054;4.110;2023-05-29T15:10:43;2.42;;;1.50;;
73239;SDS011;61452;40.054;4.110;2023-05-29T15:15:46;2.85;;;1.60;;
73239;SDS011;61452;40.054;4.110;2023-05-29T15:20:49;2.22;;;1.83;;
73239;SDS011;61452;40.054;4.110;2023-05-29T15:25:51;2.10;;;1.60;;
73239;SDS011;61452;40.054;4.110;2023-05-29T15:30:54;2.67;;;1.45;;
73239;SDS011;61452;40.054;4.110;2023-05-29T15:35:56;2.80;;;1.50;;
73239;SDS011;61452;40.054;4.110;2023-05-29T15:40:58;2.78;;;1.65;;
73239;SDS011;61452;40.054;4.110;2023-05-29T15:46:01;2.67;;;1.50;;
73239;SDS011;61452;40.054;4.110;2023-05-29T15:51:03;2.25;;;1.58;;
73239;SDS011;61452;40.054;4.110;2023-05-29T15:56:05;2.60;;;1.40;;
73239;SDS011;61452;40.054;4.110;2023-05-29T16:01:07;3.85;;;1.70;;
73239;SDS011;61452;40.054;4.110;2023-05-29T16:06:09;3.10;;;2.10;;
73239;SDS011;61452;40.054;4.110;2023-05-29T16:11:12;2.72;;;1.42;;
73239;SDS011;61452;40.054;4.110;2023-05-29T16:16:14;2.33;;;1.80;;
73239;SDS011;61452;40.054;4.110;2023-05-29T16:21:18;2.63;;;1.70;;
73239;SDS011;61452;40.054;4.110;2023-05-29T16:26:22;4.82;;;1.55;;
73239;SDS011;61452;40.054;4.110;2023-05-29T16:31:25;1.92;;;1.40;;
73239;SDS011;61452;40.054;4.110;2023-05-29T16:36:27;3.20;;;1.50;;
73239;SDS011;61452;40.054;4.110;2023-05-29T16:41:29;3.45;;;1.67;;
73239;SDS011;61452;40.054;4.110;2023-05-29T16:46:31;2.63;;;1.35;;
73239;SDS011;61452;40.054;4.110;2023-05-29T16:51:34;2.95;;;1.42;;
73239;SDS011;61452;40.054;4.110;2023-05-29T17:01:39;2.15;;;1.50;;
73239;SDS011;61452;40.054;4.110;2023-05-29T17:06:41;2.40;;;1.60;;
73239;SDS011;61452;40.054;4.110;2023-05-29T17:11:44;2.95;;;1.20;;
73239;SDS011;61452;40.054;4.110;2023-05-29T17:16:46;2.78;;;1.50;;
73239;SDS011;61452;40.054;4.110;2023-05-29T17:21:48;2.58;;;1.50;;
73239;SDS011;61452;40.054;4.110;2023-05-29T17:26:50;3.58;;;1.50;;
73239;SDS011;61452;40.054;4.110;2023-05-29T17:31:53;2.35;;;1.55;;
73239;SDS011;61452;40.054;4.110;2023-05-29T17:36:55;1.92;;;1.25;;
73239;SDS011;61452;40.054;4.110;2023-05-29T17:41:57;3.10;;;1.40;;
73239;SDS011;61452;40.054;4.110;2023-05-29T17:46:59;3.33;;;1.42;;
73239;SDS011;61452;40.054;4.110;2023-05-29T17:52:01;3.05;;;1.67;;
73239;SDS011;61452;40.054;4.110;2023-05-29T17:57:03;2.30;;;1.38;;
73239;SDS011;61452;40.054;4.110;2023-05-29T18:02:06;2.80;;;1.45;;
73239;SDS011;61452;40.054;4.110;2023-05-29T18:07:09;3.13;;;1.52;;
73239;SDS011;61452;40.054;4.110;2023-05-29T18:12:13;1.95;;;1.27;;
73239;SDS011;61452;40.054;4.110;2023-05-29T18:17:15;2.92;;;1.50;;
73239;SDS011;61452;40.054;4.110;2023-05-29T18:22:18;2.70;;;1.60;;
73239;SDS011;61452;40.054;4.110;2023-05-29T18:27:20;3.78;;;1.50;;
73239;SDS011;61452;40.054;4.110;2023-05-29T18:32:22;2.70;;;1.30;;
73239;SDS011;61452;40.054;4.110;2023-05-29T18:37:24;2.97;;;1.83;;
73239;SDS011;61452;40.054;4.110;2023-05-29T18:42:26;2.00;;;1.50;;
73239;SDS011;61452;40.054;4.110;2023-05-29T18:47:28;2.33;;;1.40;;
73239;SDS011;61452;40.054;4.110;2023-05-29T18:52:30;2.53;;;1.45;;
73239;SDS011;61452;40.054;4.110;2023-05-29T18:57:33;1.90;;;1.20;;
73239;SDS011;61452;40.054;4.110;2023-05-29T19:02:36;2.03;;;1.30;;
73239;SDS011;61452;40.054;4.110;2023-05-29T19:07:40;3.03;;;1.58;;
73239;SDS011;61452;40.054;4.110;2023-05-29T19:12:42;4.63;;;1.17;;
73239;SDS011;61452;40.054;4.110;2023-05-29T19:17:45;2.33;;;1.35;;
73239;SDS011;61452;40.054;4.110;2023-05-29T19:22:50;2.45;;;1.38;;
73239;SDS011;61452;40.054;4.110;2023-05-29T19:27:53;1.65;;;1.20;;
73239;SDS011;61452;40.054;4.110;2023-05-29T19:32:55;2.22;;;1.13;;
73239;SDS011;61452;40.054;4.110;2023-05-29T19:37:58;2.35;;;1.48;;
73239;SDS011;61452;40.054;4.110;2023-05-29T19:43:01;2.25;;;1.50;;
73239;SDS011;61452;40.054;4.110;2023-05-29T19:48:03;3.88;;;1.48;;
73239;SDS011;61452;40.054;4.110;2023-05-29T19:53:05;2.25;;;1.30;;
73239;SDS011;61452;40.054;4.110;2023-05-29T19:58:07;2.83;;;1.55;;
73239;SDS011;61452;40.054;4.110;2023-05-29T20:03:09;2.70;;;1.50;;
73239;SDS011;61452;40.054;4.110;2023-05-29T20:08:11;2.67;;;1.58;;
73239;SDS011;61452;40.054;4.110;2023-05-29T20:13:14;2.13;;;1.20;;
73239;SDS011;61452;40.054;4.110;2023-05-29T20:18:16;3.00;;;1.50;;
73239;SDS011;61452;40.054;4.110;2023-05-29T20:23:18;2.80;;;1.40;;
73239;SDS011;61452;40.054;4.110;2023-05-29T20:28:23;2.17;;;1.20;;
73239;SDS011;61452;40.054;4.110;2023-05-29T20:33:27;2.20;;;1.45;;
73239;SDS011;61452;40.054;4.110;2023-05-29T20:38:29;1.50;;;1.30;;
73239;SDS011;61452;40.054;4.110;2023-05-29T20:43:32;3.75;;;1.48;;
73239;SDS011;61452;40.054;4.110;2023-05-29T20:48:41;3.47;;;1.60;;
73239;SDS011;61452;40.054;4.110;2023-05-29T20:53:43;1.40;;;1.15;;
73239;SDS011;61452;40.054;4.110;2023-05-29T20:58:45;2.25;;;1.20;;
73239;SDS011;61452;40.054;4.110;2023-05-29T21:03:47;1.95;;;1.40;;
73239;SDS011;61452;40.054;4.110;2023-05-29T21:08:50;2.25;;;1.20;;
73239;SDS011;61452;40.054;4.110;2023-05-29T21:13:53;2.78;;;1.40;;
73239;SDS011;61452;40.054;4.110;2023-05-29T21:18:56;2.33;;;1.33;;
73239;SDS011;61452;40.054;4.110;2023-05-29T21:23:58;2.53;;;1.30;;
73239;SDS011;61452;40.054;4.110;2023-05-29T21:29:01;2.72;;;1.35;;
73239;SDS011;61452;40.054;4.110;2023-05-29T21:34:04;2.20;;;1.42;;
73239;SDS011;61452;40.054;4.110;2023-05-29T21:39:06;2.13;;;1.30;;
73239;SDS011;61452;40.054;4.110;2023-05-29T21:44:09;2.95;;;1.50;;
73239;SDS011;61452;40.054;4.110;2023-05-29T21:49:11;2.55;;;1.20;;
73239;SDS011;61452;40.054;4.110;2023-05-29T21:54:13;2.58;;;1.55;;
73239;SDS011;61452;40.054;4.110;2023-05-29T21:59:16;3.15;;;1.30;;
73239;SDS011;61452;40.054;4.110;2023-05-29T22:04:18;2.67;;;1.42;;
73239;SDS011;61452;40.054;4.110;2023-05-29T22:09:20;2.33;;;1.40;;
73239;SDS011;61452;40.054;4.110;2023-05-29T22:14:22;3.03;;;1.50;;
73239;SDS011;61452;40.054;4.110;2023-05-29T22:19:24;3.25;;;1.65;;
73239;SDS011;61452;40.054;4.110;2023-05-29T22:24:26;3.35;;;1.77;;
73239;SDS011;61452;40.054;4.110;2023-05-29T22:29:30;2.03;;;1.10;;
73239;SDS011;61452;40.054;4.110;2023-05-29T22:34:33;2.10;;;1.27;;
73239;SDS011;61452;40.054;4.110;2023-05-29T22:39:35;2.08;;;1.35;;
73239;SDS011;61452;40.054;4.110;2023-05-29T22:44:37;1.63;;;1.20;;
73239;SDS011;61452;40.054;4.110;2023-05-29T22:49:39;1.73;;;1.27;;
73239;SDS011;61452;40.054;4.110;2023-05-29T22:54:41;1.65;;;1.25;;
73239;SDS011;61452;40.054;4.110;2023-05-29T22:59:44;2.72;;;1.20;;
73239;SDS011;61452;40.054;4.110;2023-05-29T23:04:46;2.13;;;1.10;;
73239;SDS011;61452;40.054;4.110;2023-05-29T23:09:48;2.05;;;1.10;;
73239;SDS011;61452;40.054;4.110;2023-05-29T23:14:51;1.85;;;1.10;;
73239;SDS011;61452;40.054;4.110;2023-05-29T23:19:53;2.40;;;1.30;;
73239;SDS011;61452;40.054;4.110;2023-05-29T23:24:56;3.08;;;1.60;;
73239;SDS011;61452;40.054;4.110;2023-05-29T23:29:58;2.88;;;1.38;;
73239;SDS011;61452;40.054;4.110;2023-05-29T23:35:00;1.98;;;1.38;;
73239;SDS011;61452;40.054;4.110;2023-05-29T23:40:02;2.28;;;1.50;;
73239;SDS011;61452;40.054;4.110;2023-05-29T23:45:06;2.70;;;1.23;;
73239;SDS011;61452;40.054;4.110;2023-05-29T23:50:09;2.95;;;1.33;;
73239;SDS011;61452;40.054;4.110;2023-05-29T23:55:11;2.30;;;1.20;;
